Terminal Aerodrome Forecast
Issued by NWS Topeka, KS

Home | Current Version | Previous Version | Graphics & Text | Print | Product List | Glossary On
Versions: 1 2 3 4 5 6 7 8 9 10 11 12 13 14 15 16 17 18 19 20 21
157
FTUS43 KTOP 241728
TAFTOP
TAF
KTOP 241728Z 2418/2518 32014KT P6SM VCSH BKN012 OVC025
     FM241900 30015G24KT P6SM VCSH BKN015
     FM242300 32014G24KT P6SM OVC025
     FM250200 32014KT P6SM OVC040
     FM250800 31011KT P6SM SCT100=

USA.gov is the U.S. government's official web portal to all federal, state and local government web resources and services.